Time;durP1;ratioP1;P1;durP2;ratioP2;P2;SDS_P1;SDS_P2;PMS_P1;PMS_P2;Temp;Humidity;BMP_temperature;BMP_pressure;BME280_temperature;BME280_humidity;BME280_pressure;Samples;Min_cycle;Max_cycle;Signal;HPM_P1;HPM_P2
2022/08/06 00:02:05;;;;;;;15.18;12.13;;;19.60;99.90;;;;;;10290019;28;20245;-89
2022/08/06 00:07:08;;;;;;;15.63;11.40;;;19.70;99.90;;;;;;10290634;28;20299;-89
2022/08/06 00:12:19;;;;;;;14.00;11.75;;;19.80;99.90;;;;;;10290203;28;20316;-89
2022/08/06 00:17:30;;;;;;;11.57;10.38;;;19.80;99.90;;;;;;10290160;28;20210;-88
2022/08/06 00:22:34;;;;;;;12.60;11.02;;;19.90;99.90;;;;;;10289546;28;20202;-88
2022/08/06 00:27:38;;;;;;;12.65;10.32;;;19.80;99.90;;;;;;10288995;28;20292;-89
2022/08/06 00:32:44;;;;;;;11.25;10.02;;;19.90;99.90;;;;;;10289462;28;20253;-89
2022/08/06 00:37:53;;;;;;;13.25;11.50;;;19.80;99.90;;;;;;10288976;28;20202;-89
2022/08/06 00:43:02;;;;;;;9.77;8.77;;;19.90;99.90;;;;;;10289670;28;20245;-89
2022/08/06 00:48:10;;;;;;;9.55;8.65;;;20.10;99.90;;;;;;10277944;28;20233;-89
2022/08/06 00:53:33;;;;;;;7.40;6.80;;;20.10;99.90;;;;;;10288582;28;20623;-89
2022/08/06 00:58:36;;;;;;;13.13;7.13;;;20.90;99.90;;;;;;10286689;28;20252;-89
2022/08/06 01:03:42;;;;;;;11.73;7.00;;;20.50;99.90;;;;;;10288954;28;20601;-89
2022/08/06 01:08:53;;;;;;;7.35;6.63;;;19.80;99.90;;;;;;10294994;28;20252;-89
2022/08/06 01:13:56;;;;;;;7.45;5.78;;;19.80;99.90;;;;;;10291376;28;20221;-88
2022/08/06 01:19:24;;;;;;;5.82;5.22;;;19.30;99.90;;;;;;10286661;28;20231;-88
2022/08/06 01:25:12;;;;;;;6.43;5.85;;;19.30;99.90;;;;;;10287126;28;20245;-88
2022/08/06 01:30:19;;;;;;;4.63;3.55;;;19.30;99.90;;;;;;10289608;28;20257;-88
2022/08/06 01:35:36;;;;;;;3.55;3.25;;;19.00;99.90;;;;;;10288017;28;20307;-88
2022/08/06 01:41:01;;;;;;;2.60;2.17;;;19.20;99.90;;;;;;10285956;28;20201;-88
2022/08/06 01:46:04;;;;;;;3.35;1.95;;;18.60;99.90;;;;;;10243782;28;20718;-88
2022/08/06 01:51:09;;;;;;;2.67;2.30;;;18.40;99.90;;;;;;10287510;28;20284;-88
2022/08/06 01:56:34;;;;;;;3.67;2.30;;;18.30;99.90;;;;;;10286377;28;20233;-89
2022/08/06 02:01:58;;;;;;;4.10;2.60;;;18.10;99.90;;;;;;10284806;28;20241;-88
2022/08/06 02:07:08;;;;;;;5.70;2.57;;;17.90;99.90;;;;;;10283462;28;20225;-88
2022/08/06 02:12:33;;;;;;;3.63;2.60;;;17.90;99.90;;;;;;10285347;28;20257;-88
2022/08/06 02:17:50;;;;;;;4.30;2.77;;;17.90;99.90;;;;;;10289261;28;20229;-89
2022/08/06 02:23:13;;;;;;;3.90;2.07;;;17.90;99.90;;;;;;10293856;28;20234;-88
2022/08/06 02:28:18;;;;;;;3.80;2.03;;;17.80;99.90;;;;;;10294323;28;20676;-89
2022/08/06 02:33:27;;;;;;;4.30;2.73;;;17.70;99.90;;;;;;10291659;28;20327;-88
2022/08/06 02:39:01;;;;;;;3.10;2.57;;;17.70;99.90;;;;;;10292383;28;20241;-88
2022/08/06 02:44:17;;;;;;;3.10;1.93;;;17.50;99.90;;;;;;10291591;28;20209;-89
2022/08/06 02:49:23;;;;;;;5.87;2.53;;;17.50;99.90;;;;;;10292710;28;20213;-89
2022/08/06 02:54:37;;;;;;;3.83;2.40;;;17.50;99.90;;;;;;10292484;28;20308;-88
2022/08/06 02:59:53;;;;;;;3.10;1.90;;;17.40;99.90;;;;;;10277973;28;20253;-88
2022/08/06 03:04:59;;;;;;;1.90;1.80;;;17.30;99.90;;;;;;10291358;28;20233;-89
2022/08/06 03:10:03;;;;;;;3.57;1.83;;;17.20;99.90;;;;;;10291979;28;20245;-89
2022/08/06 03:15:17;;;;;;;5.53;2.03;;;17.20;99.90;;;;;;10291214;28;20756;-89
2022/08/06 03:20:41;;;;;;;6.50;2.37;;;17.20;99.90;;;;;;10291469;28;20241;-89
2022/08/06 03:25:45;;;;;;;2.60;1.93;;;17.20;99.90;;;;;;10290797;28;20721;-88
2022/08/06 03:30:49;;;;;;;5.87;2.90;;;17.10;99.90;;;;;;10289386;28;20280;-89
2022/08/06 03:36:00;;;;;;;3.10;2.80;;;17.10;99.90;;;;;;10291100;28;20312;-88
2022/08/06 03:41:03;;;;;;;4.00;2.40;;;17.00;99.90;;;;;;10291765;28;20261;-89
2022/08/06 03:46:13;;;;;;;5.53;3.70;;;17.00;99.90;;;;;;10289015;28;20227;-88
2022/08/06 03:51:20;;;;;;;3.03;2.20;;;17.00;99.90;;;;;;10290450;28;20299;-88
2022/08/06 03:56:44;;;;;;;2.93;2.20;;;16.90;99.90;;;;;;10290452;28;20362;-88
2022/08/06 04:01:51;;;;;;;4.00;2.30;;;16.90;99.90;;;;;;10289817;28;20625;-88
2022/08/06 04:06:59;;;;;;;2.63;2.30;;;16.80;99.90;;;;;;10288433;28;20233;-88
2022/08/06 04:12:05;;;;;;;2.70;2.50;;;16.80;99.90;;;;;;10289326;28;20233;-88
2022/08/06 04:17:28;;;;;;;2.77;2.10;;;16.80;99.90;;;;;;10283516;28;20265;-88
2022/08/06 04:22:34;;;;;;;2.73;2.50;;;16.70;99.90;;;;;;10271487;28;20236;-89
2022/08/06 04:27:59;;;;;;;2.80;2.37;;;16.80;99.90;;;;;;10275531;28;20225;-88
2022/08/06 04:33:03;;;;;;;3.83;2.10;;;16.70;99.90;;;;;;10256435;28;20249;-89
2022/08/06 04:38:08;;;;;;;3.70;3.23;;;16.70;99.90;;;;;;10272441;28;20230;-89
2022/08/06 04:43:15;;;;;;;3.50;2.20;;;16.50;99.90;;;;;;10268503;28;20315;-89
2022/08/06 04:48:23;;;;;;;3.77;2.63;;;16.50;99.90;;;;;;10275886;28;20281;-88
2022/08/06 04:53:26;;;;;;;3.47;2.30;;;16.50;99.90;;;;;;10292506;28;20265;-89
2022/08/06 04:58:48;;;;;;;4.67;2.03;;;16.50;99.90;;;;;;10276860;28;20194;-88
2022/08/06 05:03:51;;;;;;;3.10;2.40;;;16.50;99.90;;;;;;10288265;28;20304;-88
2022/08/06 05:09:19;;;;;;;4.10;2.00;;;16.40;99.90;;;;;;10275778;28;20245;-88
2022/08/06 05:14:40;;;;;;;2.70;1.63;;;16.50;99.90;;;;;;10287664;28;20693;-89
2022/08/06 05:19:53;;;;;;;1.23;1.10;;;16.50;99.90;;;;;;10286481;28;20711;-88
2022/08/06 05:24:56;;;;;;;2.07;1.50;;;16.50;99.90;;;;;;10289594;28;20202;-89
2022/08/06 05:30:07;;;;;;;1.40;1.30;;;16.60;99.90;;;;;;10294216;28;20213;-89
2022/08/06 05:35:10;;;;;;;2.70;1.90;;;16.50;99.90;;;;;;10326452;28;20229;-88
2022/08/06 05:40:19;;;;;;;3.27;1.90;;;16.60;99.90;;;;;;10341032;28;20182;-88
2022/08/06 05:45:38;;;;;;;9.30;1.73;;;16.50;99.90;;;;;;10320025;28;20658;-87
2022/08/06 05:50:49;;;;;;;3.27;2.23;;;16.50;99.90;;;;;;10291018;28;20717;-89
2022/08/06 05:56:01;;;;;;;3.30;2.40;;;16.70;99.90;;;;;;10286617;28;20233;-89
2022/08/06 06:01:08;;;;;;;6.80;4.17;;;16.40;99.90;;;;;;10286425;28;20221;-88
2022/08/06 06:06:15;;;;;;;4.97;4.00;;;16.50;99.90;;;;;;10286102;28;20229;-89
2022/08/06 06:11:20;;;;;;;10.30;5.83;;;16.70;99.90;;;;;;10269535;28;20237;-89
2022/08/06 06:17:12;;;;;;;9.33;6.90;;;16.70;99.90;;;;;;10271575;28;20261;-89
2022/08/06 06:22:30;;;;;;;8.77;7.10;;;16.80;99.90;;;;;;10285901;28;20236;-89
2022/08/06 06:27:57;;;;;;;13.87;9.80;;;16.70;99.90;;;;;;10265583;28;20210;-88
2022/08/06 06:33:10;;;;;;;14.20;8.80;;;17.00;99.90;;;;;;10258470;28;20603;-89
2022/08/06 06:38:44;;;;;;;15.23;9.03;;;16.80;99.90;;;;;;10292830;28;20208;-88
2022/08/06 06:44:20;;;;;;;5.03;4.43;;;17.00;99.90;;;;;;10302801;28;20197;-90
2022/08/06 06:50:02;;;;;;;9.90;8.80;;;17.50;99.90;;;;;;10298009;28;20227;-90
2022/08/06 06:55:24;;;;;;;9.87;7.17;;;16.80;99.90;;;;;;10312417;28;20229;-91
2022/08/06 07:00:48;;;;;;;10.97;7.17;;;17.30;99.90;;;;;;10298334;28;20749;-90
2022/08/06 07:06:12;;;;;;;12.23;8.27;;;17.10;99.90;;;;;;10298439;28;20209;-90
2022/08/06 07:11:35;;;;;;;14.37;7.67;;;16.80;99.90;;;;;;10307035;28;20213;-90
2022/08/06 07:16:50;;;;;;;15.33;8.73;;;16.90;99.90;;;;;;10307326;28;20217;-89
2022/08/06 07:21:54;;;;;;;13.43;7.33;;;16.80;99.90;;;;;;10297860;28;20206;-88
2022/08/06 07:26:58;;;;;;;10.00;7.70;;;17.60;99.90;;;;;;10292327;28;20299;-88
2022/08/06 07:32:01;;;;;;;7.90;6.20;;;16.90;99.90;;;;;;10322598;28;20256;-88
2022/08/06 07:37:08;;;;;;;7.07;5.50;;;17.40;99.90;;;;;;10291124;28;20268;-89
2022/08/06 07:42:18;;;;;;;10.27;6.90;;;17.50;99.90;;;;;;10289960;28;20248;-88
2022/08/06 07:47:37;;;;;;;9.83;7.33;;;18.00;99.90;;;;;;10290789;28;20213;-88
2022/08/06 07:52:57;;;;;;;7.07;6.37;;;18.10;99.90;;;;;;10274237;28;20316;-88
2022/08/06 07:58:03;;;;;;;10.17;7.03;;;18.40;99.90;;;;;;10289782;28;20237;-88
2022/08/06 08:09:12;;;;;;;8.97;7.07;;;18.10;99.90;;;;;;10291123;28;20233;-89
2022/08/06 08:14:18;;;;;;;11.47;8.03;;;18.10;99.90;;;;;;10286735;28;20355;-88
2022/08/06 08:19:33;;;;;;;7.77;6.77;;;18.10;99.90;;;;;;10289149;28;20226;-88
2022/08/06 08:24:38;;;;;;;11.27;8.13;;;18.60;99.90;;;;;;10288446;28;20288;-88
2022/08/06 08:29:42;;;;;;;8.43;6.07;;;19.00;99.90;;;;;;10303034;28;20209;-88
2022/08/06 08:34:56;;;;;;;8.90;6.72;;;19.60;99.90;;;;;;10271012;28;20565;-89
2022/08/06 08:40:02;;;;;;;7.18;6.03;;;19.10;99.90;;;;;;10252424;28;20206;-89
2022/08/06 08:45:05;;;;;;;9.77;6.45;;;19.00;99.90;;;;;;10294330;28;20276;-89
2022/08/06 08:50:15;;;;;;;11.27;6.90;;;19.10;99.90;;;;;;10314855;28;20217;-89
2022/08/06 08:55:24;;;;;;;9.48;6.55;;;19.30;99.90;;;;;;10297740;28;20260;-89
2022/08/06 09:00:48;;;;;;;6.93;6.22;;;19.50;99.90;;;;;;10295621;28;20233;-89
2022/08/06 09:05:56;;;;;;;10.43;7.25;;;19.10;99.90;;;;;;10296725;28;20228;-89
2022/08/06 09:11:04;;;;;;;7.40;5.95;;;20.20;99.90;;;;;;10279030;28;20209;-89
2022/08/06 09:16:22;;;;;;;7.40;5.20;;;19.70;99.90;;;;;;10287149;28;20288;-88
2022/08/06 09:21:34;;;;;;;7.65;5.85;;;19.50;99.90;;;;;;10289864;28;20756;-90
2022/08/06 09:26:36;;;;;;;4.85;4.35;;;20.50;99.90;;;;;;10272464;28;20249;-89
2022/08/06 09:31:56;;;;;;;5.05;4.55;;;20.40;99.90;;;;;;10287028;28;20244;-89
2022/08/06 09:36:59;;;;;;;7.35;3.97;;;19.70;99.90;;;;;;10287166;28;20249;-89
2022/08/06 09:42:07;;;;;;;7.90;4.47;;;20.00;99.90;;;;;;10272218;28;20249;-89
2022/08/06 09:47:19;;;;;;;6.40;4.07;;;20.20;99.90;;;;;;10287135;28;20299;-90
2022/08/06 09:52:23;;;;;;;12.65;4.43;;;20.40;99.90;;;;;;10287117;28;20339;-89
2022/08/06 09:57:41;;;;;;;20.98;9.52;;;20.20;99.90;;;;;;10271553;28;20226;-87
2022/08/06 10:02:45;;;;;;;12.02;6.82;;;20.70;99.90;;;;;;10286560;28;20236;-92
2022/08/06 10:08:04;;;;;;;3.70;3.28;;;22.20;99.90;;;;;;10272275;28;20272;-89
2022/08/06 10:13:16;;;;;;;7.15;4.03;;;20.60;99.90;;;;;;10287556;28;20686;-89
2022/08/06 10:18:44;;;;;;;4.05;3.65;;;21.80;99.90;;;;;;9942761;28;10000031;-88
2022/08/06 10:24:05;;;;;;;22.23;5.60;;;21.00;99.90;;;;;;10281779;28;20225;-89
2022/08/06 10:29:08;;;;;;;37.53;12.60;;;21.40;99.90;;;;;;10283921;28;20261;-89
2022/08/06 10:34:20;;;;;;;88.82;26.60;;;21.00;99.90;;;;;;10282724;28;20316;-88
2022/08/06 10:39:28;;;;;;;4.18;3.78;;;21.50;99.90;;;;;;10288434;28;20229;-89
2022/08/06 10:44:51;;;;;;;7.60;4.65;;;21.30;99.90;;;;;;10289642;28;20241;-89
2022/08/06 10:49:56;;;;;;;6.43;4.55;;;21.00;99.90;;;;;;10290474;28;20288;-87
2022/08/06 10:55:19;;;;;;;20.88;9.02;;;20.90;99.90;;;;;;10291195;28;20288;-87
2022/08/06 11:00:22;;;;;;;12.80;6.40;;;22.10;99.90;;;;;;10290723;28;20234;-89
2022/08/06 11:05:29;;;;;;;34.80;15.48;;;22.50;99.90;;;;;;10290060;28;20260;-86
2022/08/06 11:11:01;;;;;;;21.23;9.55;;;22.90;99.90;;;;;;10289176;28;20245;-86
2022/08/06 11:16:06;;;;;;;32.28;14.30;;;22.40;99.90;;;;;;10287860;28;20304;-86
2022/08/06 11:21:45;;;;;;;26.20;12.48;;;21.70;99.90;;;;;;10279634;28;20283;-86
2022/08/06 11:27:43;;;;;;;3.13;2.83;;;21.10;99.90;;;;;;10275604;28;20218;-87
2022/08/06 11:32:52;;;;;;;25.70;13.80;;;21.20;99.90;;;;;;10292104;28;20605;-87
2022/08/06 11:37:55;;;;;;;4.57;3.00;;;22.10;99.90;;;;;;10292684;28;20253;-87
2022/08/06 11:43:05;;;;;;;16.10;5.78;;;21.60;99.90;;;;;;10322189;28;20681;-87
2022/08/06 11:48:14;;;;;;;6.40;4.13;;;21.10;99.90;;;;;;10291350;28;20233;-87
2022/08/06 11:53:38;;;;;;;1.67;1.48;;;21.30;99.90;;;;;;10290817;28;20265;-87
2022/08/06 11:59:14;;;;;;;3.50;2.50;;;21.30;99.90;;;;;;10291149;28;20213;-87
2022/08/06 12:04:32;;;;;;;2.53;1.55;;;21.80;99.90;;;;;;10290533;28;20237;-87
2022/08/06 12:09:36;;;;;;;21.38;9.93;;;22.40;99.90;;;;;;10290406;28;20210;-88
2022/08/06 12:14:42;;;;;;;7.40;5.35;;;22.70;99.90;;;;;;10288980;28;20251;-87
2022/08/06 12:19:54;;;;;;;8.93;5.65;;;22.70;99.90;;;;;;10289508;28;20264;-87
2022/08/06 12:25:06;;;;;;;17.25;10.52;;;22.60;99.90;;;;;;10265593;28;20237;-88
2022/08/06 12:30:14;;;;;;;8.77;3.95;;;22.60;99.90;;;;;;10283064;28;20257;-86
2022/08/06 12:35:56;;;;;;;15.23;6.00;;;23.00;99.90;;;;;;10288251;28;20641;-87
2022/08/06 12:41:01;;;;;;;5.45;2.92;;;22.70;99.90;;;;;;10259695;28;20234;-87
2022/08/06 12:46:15;;;;;;;12.57;8.25;;;22.90;99.90;;;;;;10288951;28;20241;-89
2022/08/06 12:51:21;;;;;;;4.63;2.67;;;23.30;99.90;;;;;;10285254;28;20500;-86
2022/08/06 12:56:30;;;;;;;4.82;3.60;;;23.30;99.90;;;;;;10286803;28;20249;-85
2022/08/06 13:01:35;;;;;;;5.93;3.65;;;23.30;99.90;;;;;;10281987;28;20229;-86
2022/08/06 13:07:00;;;;;;;4.93;3.17;;;23.30;99.80;;;;;;10282644;28;20283;-86
2022/08/06 13:12:15;;;;;;;10.55;7.32;;;23.20;98.50;;;;;;10281586;28;20287;-85
2022/08/06 13:17:31;;;;;;;4.53;3.40;;;23.50;99.90;;;;;;10280670;28;20304;-86
2022/08/06 13:22:53;;;;;;;14.75;7.72;;;23.60;99.90;;;;;;10277656;28;20745;-86
2022/08/06 13:28:12;;;;;;;11.13;6.38;;;23.40;99.90;;;;;;10258497;28;20233;-86
2022/08/06 13:33:25;;;;;;;9.13;5.22;;;23.30;97.20;;;;;;10269888;28;21187;-86
2022/08/06 13:38:33;;;;;;;11.57;5.75;;;23.40;99.90;;;;;;10261275;28;20348;-86
2022/08/06 13:43:44;;;;;;;10.43;6.72;;;23.60;99.90;;;;;;10253722;28;20288;-86
2022/08/06 13:48:59;;;;;;;9.85;4.78;;;23.80;99.90;;;;;;10265328;28;20332;-86
2022/08/06 13:54:04;;;;;;;4.85;1.38;;;23.90;99.90;;;;;;10265750;28;20340;-86
2022/08/06 13:59:22;;;;;;;9.20;5.95;;;23.70;94.90;;;;;;10265152;28;20317;-86
2022/08/06 14:04:41;;;;;;;4.00;1.77;;;23.40;99.90;;;;;;10265835;28;20339;-85
2022/08/06 14:09:52;;;;;;;3.47;2.63;;;22.90;98.50;;;;;;10270006;28;20731;-87
2022/08/06 14:15:11;;;;;;;5.50;2.67;;;23.10;99.90;;;;;;10255357;28;20675;-84
2022/08/06 14:20:16;;;;;;;5.05;1.75;;;23.30;96.80;;;;;;10263486;28;20411;-83
2022/08/06 14:25:27;;;;;;;7.40;2.97;;;23.40;98.80;;;;;;10250268;28;20297;-84
2022/08/06 14:30:49;;;;;;;4.00;3.05;;;23.40;99.30;;;;;;10266343;28;20856;-85
2022/08/06 14:35:53;;;;;;;7.65;5.72;;;23.30;95.10;;;;;;10266992;28;20300;-85
2022/08/06 14:46:43;;;;;;;8.05;4.43;;;23.40;99.90;;;;;;10261649;28;20682;-86
2022/08/06 14:51:51;;;;;;;5.63;4.28;;;23.20;99.90;;;;;;10250068;28;20952;-86
2022/08/06 14:57:13;;;;;;;3.85;3.17;;;23.20;96.50;;;;;;10265132;28;20375;-86
2022/08/06 15:02:17;;;;;;;3.90;0.73;;;23.10;96.40;;;;;;10281296;28;20652;-86
2022/08/06 15:07:21;;;;;;;4.57;3.78;;;23.10;98.50;;;;;;10266715;28;20293;-86
2022/08/06 15:12:27;;;;;;;5.97;2.08;;;23.10;99.90;;;;;;10265826;28;20300;-87
2022/08/06 15:17:49;;;;;;;6.07;4.22;;;22.90;99.90;;;;;;10282565;28;20249;-86
2022/08/06 15:23:12;;;;;;;4.40;3.10;;;23.00;99.90;;;;;;10285790;28;20229;-85
2022/08/06 15:28:16;;;;;;;3.95;2.65;;;23.40;99.90;;;;;;10293449;28;20205;-85
2022/08/06 15:33:18;;;;;;;2.75;0.70;;;23.60;99.90;;;;;;10294166;28;20265;-85
2022/08/06 15:38:22;;;;;;;4.07;2.80;;;23.70;96.20;;;;;;10292329;28;20249;-85
2022/08/06 15:43:24;;;;;;;2.20;2.00;;;23.80;99.90;;;;;;10294350;28;20229;-85
2022/08/06 15:48:29;;;;;;;2.20;1.13;;;23.70;99.90;;;;;;10292658;28;20241;-85
2022/08/06 15:53:31;;;;;;;6.13;2.47;;;24.00;99.30;;;;;;10276648;28;20266;-86
2022/08/06 15:58:37;;;;;;;2.13;1.85;;;24.00;99.90;;;;;;10268633;28;20264;-87
2022/08/06 16:03:40;;;;;;;2.58;2.38;;;24.00;99.90;;;;;;10270487;28;20229;-86
2022/08/06 16:08:59;;;;;;;1.58;0.80;;;23.90;99.90;;;;;;10270173;28;20249;-85
2022/08/06 16:14:04;;;;;;;2.65;1.15;;;23.60;96.50;;;;;;10266982;28;20230;-85
2022/08/06 16:19:06;;;;;;;5.25;2.88;;;23.70;94.80;;;;;;10239407;28;20307;-85
2022/08/06 16:24:22;;;;;;;3.40;2.53;;;24.00;99.90;;;;;;10262102;28;20229;-85
2022/08/06 16:29:27;;;;;;;1.75;1.33;;;23.80;99.90;;;;;;10271539;28;20628;-85
2022/08/06 16:34:30;;;;;;;3.33;1.70;;;23.90;94.80;;;;;;10259418;28;20692;-85
2022/08/06 16:39:38;;;;;;;1.95;1.10;;;23.80;91.00;;;;;;10261675;28;20319;-86
2022/08/06 16:44:59;;;;;;;2.33;1.25;;;23.90;99.90;;;;;;10265306;28;20249;-85
2022/08/06 16:50:11;;;;;;;2.35;0.22;;;23.90;98.50;;;;;;10278092;28;20620;-85
2022/08/06 16:55:26;;;;;;;1.48;0.95;;;23.80;95.30;;;;;;10289857;28;20322;-85
2022/08/06 17:00:34;;;;;;;2.95;1.92;;;24.00;85.90;;;;;;10290265;28;20621;-86
2022/08/06 17:05:56;;;;;;;2.47;2.28;;;24.00;99.90;;;;;;10283384;28;20351;-86
2022/08/06 17:11:02;;;;;;;4.90;2.53;;;24.00;95.50;;;;;;10267824;28;20230;-86
2022/08/06 17:16:24;;;;;;;1.15;1.02;;;23.80;99.90;;;;;;10291937;28;20258;-86
2022/08/06 17:21:31;;;;;;;2.15;1.95;;;23.70;93.10;;;;;;10257162;28;20241;-86
2022/08/06 17:26:55;;;;;;;0.90;0.75;;;23.70;99.90;;;;;;10273776;28;20202;-96
2022/08/06 17:32:01;;;;;;;1.30;0.43;;;22.80;93.80;;;;;;10289729;28;20269;-87
2022/08/06 17:37:23;;;;;;;4.22;0.80;;;21.50;91.10;;;;;;10271728;28;20730;-86
2022/08/06 17:42:44;;;;;;;1.17;0.30;;;21.40;93.10;;;;;;10310335;28;20527;-86
2022/08/06 17:47:50;;;;;;;1.42;0.60;;;20.90;96.40;;;;;;10328392;28;20245;-94
2022/08/06 17:52:53;;;;;;;1.45;0.50;;;21.00;97.90;;;;;;10298004;28;20237;-84
2022/08/06 17:57:56;;;;;;;1.95;0.40;;;20.40;94.70;;;;;;10290556;28;20217;-85
2022/08/06 18:03:19;;;;;;;7.93;0.70;;;20.10;95.00;;;;;;10292131;28;20233;-87
2022/08/06 18:08:41;;;;;;;2.63;1.30;;;19.80;96.80;;;;;;10258132;28;20623;-86
2022/08/06 18:13:54;;;;;;;3.35;1.40;;;21.10;99.90;;;;;;10292044;28;20194;-87
2022/08/06 18:18:58;;;;;;;2.85;0.98;;;21.40;99.90;;;;;;10291544;28;20588;-87
2022/08/06 18:24:01;;;;;;;6.43;1.10;;;22.00;99.90;;;;;;9605416;28;10000712;-87
2022/08/06 18:29:05;;;;;;;1.95;0.70;;;22.20;99.90;;;;;;10286278;28;20614;-87
2022/08/06 18:34:08;;;;;;;1.63;1.00;;;22.20;99.90;;;;;;10272343;28;20730;-87
2022/08/06 18:39:20;;;;;;;1.67;0.88;;;22.40;99.90;;;;;;10279905;28;20229;-87
2022/08/06 18:44:25;;;;;;;2.55;0.70;;;22.40;99.90;;;;;;10335530;28;20205;-87
2022/08/06 18:49:28;;;;;;;2.30;1.38;;;22.40;99.90;;;;;;10334005;28;20194;-87
2022/08/06 18:54:56;;;;;;;1.95;0.95;;;22.40;93.30;;;;;;10336583;28;20221;-87
2022/08/06 18:59:59;;;;;;;1.65;0.80;;;22.40;99.90;;;;;;10338584;28;20225;-88
2022/08/06 19:05:04;;;;;;;1.80;0.88;;;22.20;99.90;;;;;;10340253;28;20515;-88
2022/08/06 19:10:11;;;;;;;4.80;1.20;;;22.40;99.90;;;;;;10317989;28;20226;-88
2022/08/06 19:15:17;;;;;;;0.70;0.70;;;22.30;99.90;;;;;;10344359;28;20205;-87
2022/08/06 19:20:25;;;;;;;1.63;1.23;;;22.40;99.90;;;;;;10328542;28;20194;-87
2022/08/06 19:25:32;;;;;;;1.40;1.02;;;22.50;99.90;;;;;;10346007;28;20193;-86
2022/08/06 19:30:53;;;;;;;1.42;1.10;;;22.50;99.90;;;;;;10345348;28;20244;-87
2022/08/06 19:35:56;;;;;;;1.50;0.90;;;22.40;99.90;;;;;;10343023;28;20213;-87
2022/08/06 19:41:13;;;;;;;2.35;1.10;;;22.50;99.90;;;;;;10342786;28;20222;-87
2022/08/06 19:46:36;;;;;;;1.88;1.20;;;22.40;99.90;;;;;;10343370;28;20241;-87
2022/08/06 19:51:57;;;;;;;2.78;1.20;;;22.40;99.90;;;;;;10343561;28;20300;-87
2022/08/06 19:57:06;;;;;;;1.77;0.90;;;22.30;99.90;;;;;;10344575;28;20209;-87
2022/08/06 20:02:15;;;;;;;2.35;1.45;;;22.30;99.90;;;;;;10302224;28;20244;-87
2022/08/06 20:07:18;;;;;;;5.68;2.50;;;22.20;99.90;;;;;;10342920;28;20197;-88
2022/08/06 20:12:28;;;;;;;221.45;94.93;;;22.20;99.90;;;;;;10340251;28;20181;-88
2022/08/06 20:17:36;;;;;;;29.17;12.90;;;18.10;99.90;;;;;;10344763;28;20355;-87
2022/08/06 20:22:51;;;;;;;28.08;12.68;;;20.40;99.90;;;;;;10344159;28;20205;-88
2022/08/06 20:27:58;;;;;;;30.77;11.70;;;21.30;99.90;;;;;;10345294;28;20186;-88
2022/08/06 20:33:21;;;;;;;32.92;13.18;;;21.60;99.90;;;;;;10336218;28;20276;-88
2022/08/06 20:38:26;;;;;;;24.25;11.60;;;21.70;99.90;;;;;;10338876;28;20218;-88
2022/08/06 20:43:44;;;;;;;26.77;12.25;;;21.90;99.90;;;;;;10343810;28;20186;-87
2022/08/06 20:49:07;;;;;;;34.05;13.77;;;21.90;99.90;;;;;;10349030;28;20260;-87
2022/08/06 20:54:15;;;;;;;28.23;12.70;;;21.90;99.90;;;;;;10335401;28;20218;-87
2022/08/06 20:59:19;;;;;;;27.60;12.60;;;22.00;99.90;;;;;;10323523;28;20653;-87
2022/08/06 21:04:22;;;;;;;33.22;13.55;;;22.00;99.90;;;;;;10310026;28;20213;-87
2022/08/06 21:09:44;;;;;;;26.80;11.85;;;22.00;99.90;;;;;;10308597;28;20197;-87
2022/08/06 21:14:49;;;;;;;26.45;12.25;;;22.00;99.90;;;;;;10287315;28;20205;-87
2022/08/06 21:19:52;;;;;;;28.02;12.63;;;22.00;99.90;;;;;;10303435;28;20242;-87
2022/08/06 21:25:15;;;;;;;23.05;11.60;;;22.00;99.90;;;;;;10321489;28;20258;-87
2022/08/06 21:30:22;;;;;;;26.67;11.48;;;22.10;99.90;;;;;;10314752;28;20282;-87
2022/08/06 21:35:32;;;;;;;22.80;11.27;;;22.00;99.90;;;;;;10305606;28;20217;-87
2022/08/06 21:40:37;;;;;;;23.90;11.15;;;22.00;99.90;;;;;;10303649;28;20260;-87
2022/08/06 21:45:41;;;;;;;27.30;11.20;;;22.00;99.90;;;;;;10301708;28;20206;-88
2022/08/06 21:51:05;;;;;;;22.02;10.75;;;22.00;99.90;;;;;;10302663;28;20250;-87
2022/08/06 21:56:11;;;;;;;18.15;10.23;;;22.00;99.90;;;;;;10300163;28;20233;-87
2022/08/06 22:01:34;;;;;;;21.70;10.38;;;22.00;99.90;;;;;;10266379;28;20720;-87
2022/08/06 22:06:56;;;;;;;26.70;10.55;;;22.00;99.90;;;;;;10301676;28;20202;-88
2022/08/06 22:12:00;;;;;;;15.23;8.85;;;22.00;99.90;;;;;;10296857;28;20202;-87
2022/08/06 22:17:22;;;;;;;17.88;8.55;;;22.00;99.90;;;;;;10299251;28;20229;-87
2022/08/06 22:22:45;;;;;;;16.83;8.48;;;22.00;99.90;;;;;;10292226;28;20310;-87
2022/08/06 22:27:55;;;;;;;17.80;8.55;;;22.00;99.90;;;;;;10288643;28;20265;-87
2022/08/06 22:33:16;;;;;;;16.73;8.80;;;22.00;99.90;;;;;;10287150;28;20573;-86
2022/08/06 22:38:18;;;;;;;24.10;9.60;;;22.00;99.90;;;;;;10287209;28;20229;-86
2022/08/06 22:43:25;;;;;;;16.70;8.50;;;21.90;99.90;;;;;;10301446;28;20272;-86
2022/08/06 22:48:48;;;;;;;17.55;8.15;;;21.90;99.90;;;;;;10298331;28;20256;-86
2022/08/06 22:53:51;;;;;;;14.82;8.50;;;22.00;99.90;;;;;;10307462;28;20246;-87
2022/08/06 22:59:14;;;;;;;19.30;8.13;;;21.90;99.90;;;;;;10286559;28;20284;-88
2022/08/06 23:04:38;;;;;;;21.05;9.10;;;21.90;99.90;;;;;;10288323;28;20265;-88
2022/08/06 23:09:42;;;;;;;17.05;8.80;;;21.90;99.90;;;;;;10278105;28;20199;-88
2022/08/06 23:14:53;;;;;;;18.52;9.13;;;21.90;99.90;;;;;;10277205;28;20737;-88
2022/08/06 23:19:56;;;;;;;17.42;9.73;;;21.90;99.90;;;;;;10272387;28;20245;-88
2022/08/06 23:24:59;;;;;;;17.30;8.55;;;21.90;99.90;;;;;;10287472;28;20631;-87
2022/08/06 23:30:22;;;;;;;18.25;8.85;;;21.90;99.90;;;;;;10274262;28;20223;-88
2022/08/06 23:35:27;;;;;;;19.42;8.93;;;21.90;99.90;;;;;;10260814;28;20214;-87
2022/08/06 23:40:38;;;;;;;16.33;7.90;;;21.90;99.90;;;;;;10291346;28;20718;-87
2022/08/06 23:45:41;;;;;;;17.00;9.23;;;21.90;99.90;;;;;;10291536;28;20299;-87
2022/08/06 23:50:44;;;;;;;13.13;7.97;;;21.90;99.90;;;;;;10274572;28;20260;-87
2022/08/06 23:55:55;;;;;;;17.40;8.35;;;21.90;99.90;;;;;;10291862;28;20237;-87
